sensor_id;sensor_type;location;lat;lon;timestamp;P1;durP1;ratioP1;P2;durP2;ratioP2
13793;SDS011;31160;49.500;7.772;2022-11-23T00:02:17;6.93;;;1.70;;
13793;SDS011;31160;49.500;7.772;2022-11-23T00:04:44;6.17;;;1.40;;
13793;SDS011;31160;49.500;7.772;2022-11-23T00:07:11;9.70;;;1.87;;
13793;SDS011;31160;49.500;7.772;2022-11-23T00:09:37;6.60;;;1.63;;
13793;SDS011;31160;49.500;7.772;2022-11-23T00:12:04;5.27;;;1.50;;
13793;SDS011;31160;49.500;7.772;2022-11-23T00:14:31;5.63;;;1.23;;
13793;SDS011;31160;49.500;7.772;2022-11-23T00:16:58;9.03;;;1.90;;
13793;SDS011;31160;49.500;7.772;2022-11-23T00:19:25;5.77;;;1.77;;
13793;SDS011;31160;49.500;7.772;2022-11-23T00:21:51;7.00;;;1.30;;
13793;SDS011;31160;49.500;7.772;2022-11-23T00:24:18;5.23;;;1.43;;
13793;SDS011;31160;49.500;7.772;2022-11-23T00:26:45;6.03;;;1.47;;
13793;SDS011;31160;49.500;7.772;2022-11-23T00:29:11;7.30;;;1.50;;
13793;SDS011;31160;49.500;7.772;2022-11-23T00:31:38;7.43;;;1.60;;
13793;SDS011;31160;49.500;7.772;2022-11-23T00:34:05;7.87;;;1.27;;
13793;SDS011;31160;49.500;7.772;2022-11-23T00:36:32;4.90;;;1.70;;
13793;SDS011;31160;49.500;7.772;2022-11-23T00:38:59;9.57;;;1.80;;
13793;SDS011;31160;49.500;7.772;2022-11-23T00:41:26;6.90;;;1.10;;
13793;SDS011;31160;49.500;7.772;2022-11-23T00:43:53;7.90;;;1.57;;
13793;SDS011;31160;49.500;7.772;2022-11-23T00:46:21;7.20;;;1.23;;
13793;SDS011;31160;49.500;7.772;2022-11-23T00:48:50;3.67;;;1.17;;
13793;SDS011;31160;49.500;7.772;2022-11-23T00:51:20;9.43;;;1.77;;
13793;SDS011;31160;49.500;7.772;2022-11-23T00:53:49;7.00;;;1.60;;
13793;SDS011;31160;49.500;7.772;2022-11-23T00:56:16;9.33;;;2.30;;
13793;SDS011;31160;49.500;7.772;2022-11-23T00:58:48;5.43;;;1.30;;
13793;SDS011;31160;49.500;7.772;2022-11-23T01:01:16;6.93;;;1.27;;
13793;SDS011;31160;49.500;7.772;2022-11-23T01:03:46;10.87;;;1.77;;
13793;SDS011;31160;49.500;7.772;2022-11-23T01:06:18;6.90;;;1.30;;
13793;SDS011;31160;49.500;7.772;2022-11-23T01:08:50;10.70;;;1.97;;
13793;SDS011;31160;49.500;7.772;2022-11-23T01:11:21;10.10;;;2.27;;
13793;SDS011;31160;49.500;7.772;2022-11-23T01:13:49;7.13;;;1.83;;
13793;SDS011;31160;49.500;7.772;2022-11-23T01:16:26;9.67;;;1.50;;
13793;SDS011;31160;49.500;7.772;2022-11-23T01:18:54;7.83;;;1.47;;
13793;SDS011;31160;49.500;7.772;2022-11-23T01:21:23;6.63;;;2.20;;
13793;SDS011;31160;49.500;7.772;2022-11-23T01:23:50;8.33;;;1.87;;
13793;SDS011;31160;49.500;7.772;2022-11-23T01:26:17;10.40;;;1.33;;
13793;SDS011;31160;49.500;7.772;2022-11-23T01:28:44;5.23;;;1.50;;
13793;SDS011;31160;49.500;7.772;2022-11-23T01:31:16;9.70;;;1.90;;
13793;SDS011;31160;49.500;7.772;2022-11-23T01:33:51;6.40;;;1.33;;
13793;SDS011;31160;49.500;7.772;2022-11-23T01:36:24;10.83;;;1.80;;
13793;SDS011;31160;49.500;7.772;2022-11-23T01:38:52;11.23;;;2.50;;
13793;SDS011;31160;49.500;7.772;2022-11-23T01:41:21;5.87;;;1.70;;
13793;SDS011;31160;49.500;7.772;2022-11-23T01:43:52;15.20;;;1.90;;
13793;SDS011;31160;49.500;7.772;2022-11-23T01:46:19;8.23;;;1.73;;
13793;SDS011;31160;49.500;7.772;2022-11-23T01:51:34;9.17;;;1.67;;
13793;SDS011;31160;49.500;7.772;2022-11-23T01:54:04;7.83;;;1.57;;
13793;SDS011;31160;49.500;7.772;2022-11-23T01:56:36;5.57;;;1.60;;
13793;SDS011;31160;49.500;7.772;2022-11-23T01:59:08;11.17;;;1.70;;
13793;SDS011;31160;49.500;7.772;2022-11-23T02:01:38;10.23;;;1.83;;
13793;SDS011;31160;49.500;7.772;2022-11-23T02:04:04;9.97;;;1.87;;
13793;SDS011;31160;49.500;7.772;2022-11-23T02:06:40;9.83;;;2.10;;
13793;SDS011;31160;49.500;7.772;2022-11-23T02:09:10;11.23;;;1.70;;
13793;SDS011;31160;49.500;7.772;2022-11-23T02:11:36;9.40;;;1.50;;
13793;SDS011;31160;49.500;7.772;2022-11-23T02:14:03;13.57;;;2.10;;
13793;SDS011;31160;49.500;7.772;2022-11-23T02:16:30;8.93;;;1.93;;
13793;SDS011;31160;49.500;7.772;2022-11-23T02:18:57;11.03;;;1.50;;
13793;SDS011;31160;49.500;7.772;2022-11-23T02:21:24;5.50;;;1.30;;
13793;SDS011;31160;49.500;7.772;2022-11-23T02:23:55;11.87;;;1.83;;
13793;SDS011;31160;49.500;7.772;2022-11-23T02:26:32;9.57;;;1.83;;
13793;SDS011;31160;49.500;7.772;2022-11-23T02:31:47;6.10;;;1.67;;
13793;SDS011;31160;49.500;7.772;2022-11-23T02:34:15;7.67;;;2.57;;
13793;SDS011;31160;49.500;7.772;2022-11-23T02:36:43;6.73;;;1.47;;
13793;SDS011;31160;49.500;7.772;2022-11-23T02:39:16;8.03;;;1.93;;
13793;SDS011;31160;49.500;7.772;2022-11-23T02:41:53;7.03;;;1.70;;
13793;SDS011;31160;49.500;7.772;2022-11-23T02:47:10;8.60;;;1.50;;
13793;SDS011;31160;49.500;7.772;2022-11-23T02:49:38;7.93;;;1.70;;
13793;SDS011;31160;49.500;7.772;2022-11-23T02:52:06;6.70;;;1.50;;
13793;SDS011;31160;49.500;7.772;2022-11-23T02:54:34;4.83;;;1.23;;
13793;SDS011;31160;49.500;7.772;2022-11-23T02:57:01;6.67;;;1.53;;
13793;SDS011;31160;49.500;7.772;2022-11-23T02:59:28;8.63;;;1.80;;
13793;SDS011;31160;49.500;7.772;2022-11-23T03:01:58;11.47;;;2.20;;
13793;SDS011;31160;49.500;7.772;2022-11-23T03:04:27;7.50;;;1.70;;
13793;SDS011;31160;49.500;7.772;2022-11-23T03:06:54;7.37;;;1.30;;
13793;SDS011;31160;49.500;7.772;2022-11-23T03:09:22;10.33;;;2.97;;
13793;SDS011;31160;49.500;7.772;2022-11-23T03:11:51;5.57;;;1.67;;
13793;SDS011;31160;49.500;7.772;2022-11-23T03:14:18;8.07;;;1.57;;
13793;SDS011;31160;49.500;7.772;2022-11-23T03:16:51;8.07;;;2.03;;
13793;SDS011;31160;49.500;7.772;2022-11-23T03:19:18;6.83;;;1.80;;
13793;SDS011;31160;49.500;7.772;2022-11-23T03:21:46;11.07;;;2.00;;
13793;SDS011;31160;49.500;7.772;2022-11-23T03:24:13;11.80;;;1.77;;
13793;SDS011;31160;49.500;7.772;2022-11-23T03:26:41;10.13;;;1.47;;
13793;SDS011;31160;49.500;7.772;2022-11-23T03:29:12;10.23;;;2.10;;
13793;SDS011;31160;49.500;7.772;2022-11-23T03:31:40;9.00;;;2.10;;
13793;SDS011;31160;49.500;7.772;2022-11-23T03:34:10;7.37;;;1.67;;
13793;SDS011;31160;49.500;7.772;2022-11-23T03:36:38;7.73;;;1.60;;
13793;SDS011;31160;49.500;7.772;2022-11-23T03:39:05;10.03;;;1.80;;
13793;SDS011;31160;49.500;7.772;2022-11-23T03:41:55;6.43;;;1.73;;
13793;SDS011;31160;49.500;7.772;2022-11-23T03:44:27;9.97;;;2.80;;
13793;SDS011;31160;49.500;7.772;2022-11-23T03:46:53;6.47;;;1.80;;
13793;SDS011;31160;49.500;7.772;2022-11-23T03:49:20;7.67;;;2.07;;
13793;SDS011;31160;49.500;7.772;2022-11-23T03:51:48;6.97;;;2.30;;
13793;SDS011;31160;49.500;7.772;2022-11-23T03:54:14;8.23;;;1.67;;
13793;SDS011;31160;49.500;7.772;2022-11-23T03:56:41;7.67;;;1.83;;
13793;SDS011;31160;49.500;7.772;2022-11-23T03:59:09;8.03;;;1.70;;
13793;SDS011;31160;49.500;7.772;2022-11-23T04:01:36;9.77;;;1.90;;
13793;SDS011;31160;49.500;7.772;2022-11-23T04:04:07;10.13;;;1.77;;
13793;SDS011;31160;49.500;7.772;2022-11-23T04:06:54;13.73;;;2.27;;
13793;SDS011;31160;49.500;7.772;2022-11-23T04:09:25;8.13;;;1.77;;
13793;SDS011;31160;49.500;7.772;2022-11-23T04:12:15;5.87;;;1.57;;
13793;SDS011;31160;49.500;7.772;2022-11-23T04:14:42;10.17;;;1.80;;
13793;SDS011;31160;49.500;7.772;2022-11-23T04:17:08;10.70;;;1.90;;
13793;SDS011;31160;49.500;7.772;2022-11-23T04:19:36;8.53;;;1.70;;
13793;SDS011;31160;49.500;7.772;2022-11-23T04:22:03;8.37;;;1.60;;
13793;SDS011;31160;49.500;7.772;2022-11-23T04:24:36;7.87;;;2.07;;
13793;SDS011;31160;49.500;7.772;2022-11-23T04:27:05;14.23;;;2.37;;
13793;SDS011;31160;49.500;7.772;2022-11-23T04:29:31;5.87;;;1.47;;
13793;SDS011;31160;49.500;7.772;2022-11-23T04:31:59;8.83;;;1.60;;
13793;SDS011;31160;49.500;7.772;2022-11-23T04:34:26;8.20;;;1.73;;
13793;SDS011;31160;49.500;7.772;2022-11-23T04:36:53;9.67;;;1.67;;
13793;SDS011;31160;49.500;7.772;2022-11-23T04:39:26;5.23;;;1.47;;
13793;SDS011;31160;49.500;7.772;2022-11-23T04:42:10;5.80;;;1.83;;
13793;SDS011;31160;49.500;7.772;2022-11-23T04:44:39;8.10;;;2.03;;
13793;SDS011;31160;49.500;7.772;2022-11-23T04:47:06;9.37;;;1.80;;
13793;SDS011;31160;49.500;7.772;2022-11-23T04:49:36;7.07;;;1.23;;
13793;SDS011;31160;49.500;7.772;2022-11-23T04:52:03;9.57;;;2.77;;
13793;SDS011;31160;49.500;7.772;2022-11-23T04:54:35;6.53;;;2.40;;
13793;SDS011;31160;49.500;7.772;2022-11-23T04:57:06;8.93;;;2.10;;
13793;SDS011;31160;49.500;7.772;2022-11-23T04:59:33;11.60;;;2.00;;
13793;SDS011;31160;49.500;7.772;2022-11-23T05:02:00;6.60;;;1.33;;
13793;SDS011;31160;49.500;7.772;2022-11-23T05:04:42;11.03;;;2.00;;
13793;SDS011;31160;49.500;7.772;2022-11-23T05:07:09;7.07;;;2.07;;
13793;SDS011;31160;49.500;7.772;2022-11-23T05:09:38;7.77;;;1.70;;
13793;SDS011;31160;49.500;7.772;2022-11-23T05:12:12;7.03;;;1.60;;
13793;SDS011;31160;49.500;7.772;2022-11-23T05:14:39;7.83;;;1.87;;
13793;SDS011;31160;49.500;7.772;2022-11-23T05:17:06;8.40;;;2.13;;
13793;SDS011;31160;49.500;7.772;2022-11-23T05:19:33;12.07;;;2.27;;
13793;SDS011;31160;49.500;7.772;2022-11-23T05:22:01;10.00;;;1.53;;
13793;SDS011;31160;49.500;7.772;2022-11-23T05:24:29;12.70;;;2.53;;
13793;SDS011;31160;49.500;7.772;2022-11-23T05:27:06;10.40;;;2.40;;
13793;SDS011;31160;49.500;7.772;2022-11-23T05:29:33;8.17;;;2.00;;
13793;SDS011;31160;49.500;7.772;2022-11-23T05:32:00;11.13;;;2.33;;
13793;SDS011;31160;49.500;7.772;2022-11-23T05:34:27;11.33;;;2.10;;
13793;SDS011;31160;49.500;7.772;2022-11-23T05:36:54;8.13;;;2.20;;
13793;SDS011;31160;49.500;7.772;2022-11-23T05:39:22;8.30;;;2.87;;
13793;SDS011;31160;49.500;7.772;2022-11-23T05:41:50;8.60;;;1.90;;
13793;SDS011;31160;49.500;7.772;2022-11-23T05:44:36;13.20;;;2.00;;
13793;SDS011;31160;49.500;7.772;2022-11-23T05:47:06;9.30;;;1.90;;
13793;SDS011;31160;49.500;7.772;2022-11-23T05:49:35;6.27;;;1.90;;
13793;SDS011;31160;49.500;7.772;2022-11-23T05:52:03;18.03;;;2.20;;
13793;SDS011;31160;49.500;7.772;2022-11-23T05:54:31;7.30;;;1.80;;
13793;SDS011;31160;49.500;7.772;2022-11-23T05:57:03;8.82;;;1.92;;
13793;SDS011;31160;49.500;7.772;2022-11-23T05:59:36;8.63;;;2.30;;
13793;SDS011;31160;49.500;7.772;2022-11-23T06:02:03;13.73;;;3.97;;
13793;SDS011;31160;49.500;7.772;2022-11-23T06:04:32;9.50;;;2.10;;
13793;SDS011;31160;49.500;7.772;2022-11-23T06:06:59;6.67;;;2.10;;
13793;SDS011;31160;49.500;7.772;2022-11-23T06:09:33;12.97;;;1.80;;
13793;SDS011;31160;49.500;7.772;2022-11-23T06:12:05;6.93;;;1.87;;
13793;SDS011;31160;49.500;7.772;2022-11-23T06:14:33;10.03;;;2.30;;
13793;SDS011;31160;49.500;7.772;2022-11-23T06:17:00;5.57;;;1.67;;
13793;SDS011;31160;49.500;7.772;2022-11-23T06:19:37;7.97;;;2.13;;
13793;SDS011;31160;49.500;7.772;2022-11-23T06:22:04;6.07;;;2.03;;
13793;SDS011;31160;49.500;7.772;2022-11-23T06:24:36;9.60;;;2.10;;
13793;SDS011;31160;49.500;7.772;2022-11-23T06:27:32;7.10;;;1.93;;
13793;SDS011;31160;49.500;7.772;2022-11-23T06:30:02;7.93;;;2.33;;
13793;SDS011;31160;49.500;7.772;2022-11-23T06:32:30;8.33;;;2.13;;
13793;SDS011;31160;49.500;7.772;2022-11-23T06:34:58;23.23;;;8.90;;
13793;SDS011;31160;49.500;7.772;2022-11-23T06:37:29;18.07;;;6.80;;
13793;SDS011;31160;49.500;7.772;2022-11-23T06:39:56;8.97;;;2.27;;
13793;SDS011;31160;49.500;7.772;2022-11-23T06:42:24;11.53;;;2.00;;
13793;SDS011;31160;49.500;7.772;2022-11-23T06:45:14;7.40;;;1.90;;
13793;SDS011;31160;49.500;7.772;2022-11-23T06:47:41;9.90;;;2.20;;
13793;SDS011;31160;49.500;7.772;2022-11-23T06:50:09;5.87;;;1.50;;
13793;SDS011;31160;49.500;7.772;2022-11-23T06:52:37;7.33;;;2.30;;
13793;SDS011;31160;49.500;7.772;2022-11-23T06:55:04;8.10;;;1.83;;
13793;SDS011;31160;49.500;7.772;2022-11-23T06:57:30;4.67;;;1.43;;
13793;SDS011;31160;49.500;7.772;2022-11-23T06:59:57;7.97;;;1.87;;
13793;SDS011;31160;49.500;7.772;2022-11-23T07:02:31;7.30;;;2.00;;
13793;SDS011;31160;49.500;7.772;2022-11-23T07:04:58;8.83;;;1.67;;
13793;SDS011;31160;49.500;7.772;2022-11-23T07:07:26;10.67;;;1.83;;
13793;SDS011;31160;49.500;7.772;2022-11-23T07:10:14;10.30;;;2.80;;
13793;SDS011;31160;49.500;7.772;2022-11-23T07:12:43;8.70;;;2.13;;
13793;SDS011;31160;49.500;7.772;2022-11-23T07:15:13;6.23;;;1.80;;
13793;SDS011;31160;49.500;7.772;2022-11-23T07:17:41;8.13;;;2.10;;
13793;SDS011;31160;49.500;7.772;2022-11-23T07:20:10;7.57;;;1.90;;
13793;SDS011;31160;49.500;7.772;2022-11-23T07:22:37;9.77;;;2.13;;
13793;SDS011;31160;49.500;7.772;2022-11-23T07:25:06;9.43;;;2.20;;
13793;SDS011;31160;49.500;7.772;2022-11-23T07:27:32;10.63;;;3.20;;
13793;SDS011;31160;49.500;7.772;2022-11-23T07:30:01;9.40;;;3.07;;
13793;SDS011;31160;49.500;7.772;2022-11-23T07:32:27;6.67;;;3.10;;
13793;SDS011;31160;49.500;7.772;2022-11-23T07:34:55;7.87;;;3.37;;
13793;SDS011;31160;49.500;7.772;2022-11-23T07:37:22;10.43;;;3.70;;
13793;SDS011;31160;49.500;7.772;2022-11-23T07:39:49;11.67;;;4.80;;
13793;SDS011;31160;49.500;7.772;2022-11-23T07:42:25;13.33;;;5.70;;
13793;SDS011;31160;49.500;7.772;2022-11-23T07:45:10;10.20;;;4.07;;
13793;SDS011;31160;49.500;7.772;2022-11-23T07:47:42;13.60;;;3.73;;
13793;SDS011;31160;49.500;7.772;2022-11-23T07:50:09;11.03;;;3.80;;
13793;SDS011;31160;49.500;7.772;2022-11-23T07:52:38;14.57;;;4.90;;
13793;SDS011;31160;49.500;7.772;2022-11-23T07:55:06;11.47;;;3.67;;
13793;SDS011;31160;49.500;7.772;2022-11-23T07:57:33;10.67;;;3.10;;
13793;SDS011;31160;49.500;7.772;2022-11-23T08:00:00;26.80;;;11.10;;
13793;SDS011;31160;49.500;7.772;2022-11-23T08:02:37;34.83;;;14.87;;
13793;SDS011;31160;49.500;7.772;2022-11-23T08:05:23;41.50;;;18.20;;
13793;SDS011;31160;49.500;7.772;2022-11-23T08:07:56;24.87;;;10.73;;
13793;SDS011;31160;49.500;7.772;2022-11-23T08:10:24;22.03;;;9.70;;
13793;SDS011;31160;49.500;7.772;2022-11-23T08:12:56;97.10;;;37.50;;
13793;SDS011;31160;49.500;7.772;2022-11-23T08:15:23;44.83;;;21.73;;
13793;SDS011;31160;49.500;7.772;2022-11-23T08:17:57;29.03;;;13.60;;
13793;SDS011;31160;49.500;7.772;2022-11-23T08:20:27;18.47;;;7.97;;
13793;SDS011;31160;49.500;7.772;2022-11-23T08:22:55;25.63;;;10.03;;
13793;SDS011;31160;49.500;7.772;2022-11-23T08:25:22;46.17;;;20.80;;
13793;SDS011;31160;49.500;7.772;2022-11-23T08:27:56;33.90;;;14.17;;
13793;SDS011;31160;49.500;7.772;2022-11-23T08:30:24;30.00;;;12.07;;
13793;SDS011;31160;49.500;7.772;2022-11-23T08:32:51;16.90;;;7.77;;
13793;SDS011;31160;49.500;7.772;2022-11-23T08:35:18;13.60;;;3.63;;
13793;SDS011;31160;49.500;7.772;2022-11-23T08:37:45;10.80;;;2.23;;
13793;SDS011;31160;49.500;7.772;2022-11-23T08:40:12;7.97;;;1.90;;
13793;SDS011;31160;49.500;7.772;2022-11-23T08:42:40;10.27;;;2.57;;
13793;SDS011;31160;49.500;7.772;2022-11-23T08:45:07;10.73;;;2.10;;
13793;SDS011;31160;49.500;7.772;2022-11-23T08:47:34;8.93;;;2.17;;
13793;SDS011;31160;49.500;7.772;2022-11-23T08:50:01;8.50;;;2.10;;
13793;SDS011;31160;49.500;7.772;2022-11-23T08:52:27;11.63;;;2.80;;
13793;SDS011;31160;49.500;7.772;2022-11-23T08:54:54;7.70;;;2.17;;
13793;SDS011;31160;49.500;7.772;2022-11-23T08:57:21;11.33;;;2.27;;
13793;SDS011;31160;49.500;7.772;2022-11-23T08:59:48;8.63;;;2.17;;
13793;SDS011;31160;49.500;7.772;2022-11-23T09:02:14;6.67;;;2.07;;
13793;SDS011;31160;49.500;7.772;2022-11-23T09:04:41;13.10;;;3.97;;
13793;SDS011;31160;49.500;7.772;2022-11-23T09:07:08;6.20;;;2.20;;
13793;SDS011;31160;49.500;7.772;2022-11-23T09:09:35;8.80;;;2.53;;
13793;SDS011;31160;49.500;7.772;2022-11-23T09:12:01;9.53;;;1.60;;
13793;SDS011;31160;49.500;7.772;2022-11-23T09:14:28;11.13;;;3.60;;
13793;SDS011;31160;49.500;7.772;2022-11-23T09:16:56;7.50;;;2.30;;
13793;SDS011;31160;49.500;7.772;2022-11-23T09:19:22;10.97;;;2.87;;
13793;SDS011;31160;49.500;7.772;2022-11-23T09:21:49;18.53;;;6.53;;
13793;SDS011;31160;49.500;7.772;2022-11-23T09:24:16;8.40;;;2.00;;
13793;SDS011;31160;49.500;7.772;2022-11-23T09:26:43;9.47;;;3.10;;
13793;SDS011;31160;49.500;7.772;2022-11-23T09:29:09;8.00;;;3.20;;
13793;SDS011;31160;49.500;7.772;2022-11-23T09:31:36;7.77;;;3.03;;
13793;SDS011;31160;49.500;7.772;2022-11-23T09:34:03;6.70;;;2.90;;
13793;SDS011;31160;49.500;7.772;2022-11-23T09:36:30;6.37;;;2.33;;
13793;SDS011;31160;49.500;7.772;2022-11-23T09:38:57;9.97;;;1.90;;
13793;SDS011;31160;49.500;7.772;2022-11-23T09:50:22;5.20;;;2.00;;
13793;SDS011;31160;49.500;7.772;2022-11-23T09:52:40;9.97;;;1.77;;
13793;SDS011;31160;49.500;7.772;2022-11-23T09:58:09;4.73;;;1.30;;
13793;SDS011;31160;49.500;7.772;2022-11-23T10:00:42;7.23;;;1.40;;
13793;SDS011;31160;49.500;7.772;2022-11-23T10:03:16;3.53;;;1.20;;
13793;SDS011;31160;49.500;7.772;2022-11-23T10:05:46;5.47;;;1.40;;
13793;SDS011;31160;49.500;7.772;2022-11-23T10:08:57;5.83;;;1.60;;
13793;SDS011;31160;49.500;7.772;2022-11-23T10:14:50;8.17;;;1.40;;
13793;SDS011;31160;49.500;7.772;2022-11-23T10:17:22;10.23;;;1.40;;
13793;SDS011;31160;49.500;7.772;2022-11-23T10:22:57;7.83;;;1.20;;
13793;SDS011;31160;49.500;7.772;2022-11-23T10:25:34;5.13;;;1.33;;
13793;SDS011;31160;49.500;7.772;2022-11-23T10:28:15;7.67;;;2.17;;
13793;SDS011;31160;49.500;7.772;2022-11-23T10:30:48;8.97;;;1.40;;
13793;SDS011;31160;49.500;7.772;2022-11-23T10:33:25;4.60;;;1.20;;
13793;SDS011;31160;49.500;7.772;2022-11-23T10:35:57;5.20;;;1.53;;
13793;SDS011;31160;49.500;7.772;2022-11-23T10:38:24;6.07;;;1.30;;
13793;SDS011;31160;49.500;7.772;2022-11-23T10:40:56;3.97;;;1.10;;
13793;SDS011;31160;49.500;7.772;2022-11-23T10:43:40;3.60;;;1.17;;
13793;SDS011;31160;49.500;7.772;2022-11-23T10:51:54;7.37;;;1.40;;
13793;SDS011;31160;49.500;7.772;2022-11-23T10:54:22;8.23;;;1.40;;
13793;SDS011;31160;49.500;7.772;2022-11-23T10:56:52;7.27;;;1.50;;
13793;SDS011;31160;49.500;7.772;2022-11-23T10:59:24;7.20;;;1.37;;
13793;SDS011;31160;49.500;7.772;2022-11-23T11:04:39;7.30;;;1.30;;
13793;SDS011;31160;49.500;7.772;2022-11-23T11:07:17;5.57;;;1.13;;
13793;SDS011;31160;49.500;7.772;2022-11-23T11:09:56;5.23;;;1.50;;
13793;SDS011;31160;49.500;7.772;2022-11-23T11:12:25;6.40;;;1.00;;
13793;SDS011;31160;49.500;7.772;2022-11-23T11:15:13;5.90;;;1.37;;
13793;SDS011;31160;49.500;7.772;2022-11-23T11:17:41;5.80;;;1.50;;
13793;SDS011;31160;49.500;7.772;2022-11-23T11:22:56;3.23;;;1.37;;
13793;SDS011;31160;49.500;7.772;2022-11-23T11:25:35;4.57;;;1.00;;
13793;SDS011;31160;49.500;7.772;2022-11-23T11:28:05;4.20;;;1.13;;
13793;SDS011;31160;49.500;7.772;2022-11-23T11:33:47;4.83;;;0.97;;
13793;SDS011;31160;49.500;7.772;2022-11-23T11:36:18;3.47;;;1.27;;
13793;SDS011;31160;49.500;7.772;2022-11-23T11:38:48;5.30;;;1.30;;
13793;SDS011;31160;49.500;7.772;2022-11-23T11:41:37;3.87;;;0.83;;
13793;SDS011;31160;49.500;7.772;2022-11-23T11:44:06;6.30;;;1.20;;
13793;SDS011;31160;49.500;7.772;2022-11-23T11:46:39;6.00;;;1.20;;
13793;SDS011;31160;49.500;7.772;2022-11-23T11:49:18;4.43;;;1.40;;
13793;SDS011;31160;49.500;7.772;2022-11-23T11:51:52;11.33;;;1.43;;
13793;SDS011;31160;49.500;7.772;2022-11-23T11:57:27;5.93;;;1.40;;
13793;SDS011;31160;49.500;7.772;2022-11-23T11:59:59;3.40;;;1.00;;
13793;SDS011;31160;49.500;7.772;2022-11-23T12:05:08;5.90;;;1.10;;
13793;SDS011;31160;49.500;7.772;2022-11-23T12:10:47;4.23;;;1.20;;
13793;SDS011;31160;49.500;7.772;2022-11-23T12:13:29;3.07;;;1.00;;
13793;SDS011;31160;49.500;7.772;2022-11-23T12:24:05;8.50;;;1.40;;
13793;SDS011;31160;49.500;7.772;2022-11-23T12:35:20;4.57;;;1.20;;
13793;SDS011;31160;49.500;7.772;2022-11-23T12:43:28;5.07;;;0.80;;
13793;SDS011;31160;49.500;7.772;2022-11-23T12:46:05;3.17;;;1.37;;
13793;SDS011;31160;49.500;7.772;2022-11-23T12:51:39;3.63;;;0.87;;
13793;SDS011;31160;49.500;7.772;2022-11-23T12:54:39;2.87;;;0.73;;
13793;SDS011;31160;49.500;7.772;2022-11-23T12:57:27;3.70;;;0.80;;
13793;SDS011;31160;49.500;7.772;2022-11-23T13:14:57;4.53;;;1.10;;
13793;SDS011;31160;49.500;7.772;2022-11-23T13:23:18;6.27;;;1.00;;
13793;SDS011;31160;49.500;7.772;2022-11-23T13:28:49;4.80;;;1.23;;
13793;SDS011;31160;49.500;7.772;2022-11-23T13:31:18;3.77;;;0.93;;
13793;SDS011;31160;49.500;7.772;2022-11-23T13:33:51;4.30;;;1.30;;
13793;SDS011;31160;49.500;7.772;2022-11-23T13:40:19;4.63;;;1.20;;
13793;SDS011;31160;49.500;7.772;2022-11-23T13:42:17;8.03;;;1.67;;
13793;SDS011;31160;49.500;7.772;2022-11-23T13:44:45;4.53;;;1.33;;
13793;SDS011;31160;49.500;7.772;2022-11-23T13:55:04;2.17;;;0.70;;
13793;SDS011;31160;49.500;7.772;2022-11-23T13:57:40;3.10;;;0.77;;
13793;SDS011;31160;49.500;7.772;2022-11-23T14:09:20;2.50;;;0.57;;
13793;SDS011;31160;49.500;7.772;2022-11-23T14:25:28;3.03;;;0.90;;
13793;SDS011;31160;49.500;7.772;2022-11-23T14:42:20;3.47;;;0.80;;
13793;SDS011;31160;49.500;7.772;2022-11-23T14:44:48;2.13;;;0.63;;
13793;SDS011;31160;49.500;7.772;2022-11-23T14:47:23;3.63;;;0.93;;
13793;SDS011;31160;49.500;7.772;2022-11-23T14:49:55;1.80;;;1.00;;
13793;SDS011;31160;49.500;7.772;2022-11-23T14:52:26;3.53;;;1.33;;
13793;SDS011;31160;49.500;7.772;2022-11-23T14:54:56;3.77;;;1.37;;
13793;SDS011;31160;49.500;7.772;2022-11-23T14:57:26;4.30;;;1.60;;
13793;SDS011;31160;49.500;7.772;2022-11-23T14:59:58;3.40;;;1.07;;
13793;SDS011;31160;49.500;7.772;2022-11-23T15:02:35;5.13;;;1.33;;
13793;SDS011;31160;49.500;7.772;2022-11-23T15:05:37;4.67;;;1.40;;
13793;SDS011;31160;49.500;7.772;2022-11-23T15:10:44;4.10;;;1.47;;
13793;SDS011;31160;49.500;7.772;2022-11-23T15:13:46;4.50;;;1.63;;
13793;SDS011;31160;49.500;7.772;2022-11-23T15:16:15;4.13;;;1.63;;
13793;SDS011;31160;49.500;7.772;2022-11-23T15:18:43;4.83;;;1.67;;
13793;SDS011;31160;49.500;7.772;2022-11-23T15:23:38;2.83;;;0.87;;
13793;SDS011;31160;49.500;7.772;2022-11-23T15:26:18;5.13;;;0.90;;
13793;SDS011;31160;49.500;7.772;2022-11-23T15:29:25;3.53;;;0.90;;
13793;SDS011;31160;49.500;7.772;2022-11-23T15:31:59;7.43;;;2.73;;
13793;SDS011;31160;49.500;7.772;2022-11-23T15:34:46;6.00;;;2.70;;
13793;SDS011;31160;49.500;7.772;2022-11-23T15:37:15;4.23;;;2.13;;
13793;SDS011;31160;49.500;7.772;2022-11-23T15:39:43;4.20;;;1.60;;
13793;SDS011;31160;49.500;7.772;2022-11-23T15:42:14;6.60;;;1.37;;
13793;SDS011;31160;49.500;7.772;2022-11-23T15:44:43;3.83;;;1.40;;
13793;SDS011;31160;49.500;7.772;2022-11-23T15:47:22;3.93;;;1.50;;
13793;SDS011;31160;49.500;7.772;2022-11-23T15:49:58;6.03;;;1.93;;
13793;SDS011;31160;49.500;7.772;2022-11-23T15:52:28;5.40;;;1.53;;
13793;SDS011;31160;49.500;7.772;2022-11-23T15:55:03;3.60;;;1.40;;
13793;SDS011;31160;49.500;7.772;2022-11-23T15:57:35;4.37;;;1.30;;
13793;SDS011;31160;49.500;7.772;2022-11-23T16:00:04;3.53;;;1.37;;
13793;SDS011;31160;49.500;7.772;2022-11-23T16:02:41;2.63;;;1.40;;
13793;SDS011;31160;49.500;7.772;2022-11-23T16:05:13;4.30;;;1.90;;
13793;SDS011;31160;49.500;7.772;2022-11-23T16:10:23;3.70;;;1.60;;
13793;SDS011;31160;49.500;7.772;2022-11-23T16:12:53;4.77;;;1.53;;
13793;SDS011;31160;49.500;7.772;2022-11-23T16:18:00;5.20;;;1.67;;
13793;SDS011;31160;49.500;7.772;2022-11-23T16:20:28;3.20;;;1.27;;
13793;SDS011;31160;49.500;7.772;2022-11-23T16:22:56;4.67;;;1.40;;
13793;SDS011;31160;49.500;7.772;2022-11-23T16:25:30;5.93;;;1.63;;
13793;SDS011;31160;49.500;7.772;2022-11-23T16:27:59;6.73;;;1.90;;
13793;SDS011;31160;49.500;7.772;2022-11-23T16:30:42;3.80;;;1.60;;
13793;SDS011;31160;49.500;7.772;2022-11-23T16:33:16;4.70;;;2.07;;
13793;SDS011;31160;49.500;7.772;2022-11-23T16:35:45;3.57;;;1.60;;
13793;SDS011;31160;49.500;7.772;2022-11-23T16:38:12;2.73;;;1.50;;
13793;SDS011;31160;49.500;7.772;2022-11-23T16:40:39;6.83;;;2.40;;
13793;SDS011;31160;49.500;7.772;2022-11-23T16:43:11;4.53;;;2.40;;
13793;SDS011;31160;49.500;7.772;2022-11-23T16:45:38;7.03;;;2.23;;
13793;SDS011;31160;49.500;7.772;2022-11-23T16:48:34;8.50;;;2.73;;
13793;SDS011;31160;49.500;7.772;2022-11-23T16:50:54;6.33;;;2.07;;
13793;SDS011;31160;49.500;7.772;2022-11-23T16:53:22;3.27;;;2.00;;
13793;SDS011;31160;49.500;7.772;2022-11-23T16:55:52;4.50;;;2.83;;
13793;SDS011;31160;49.500;7.772;2022-11-23T16:58:20;8.63;;;2.70;;
13793;SDS011;31160;49.500;7.772;2022-11-23T17:00:47;6.30;;;1.80;;
13793;SDS011;31160;49.500;7.772;2022-11-23T17:03:15;5.57;;;2.83;;
13793;SDS011;31160;49.500;7.772;2022-11-23T17:05:44;4.87;;;2.27;;
13793;SDS011;31160;49.500;7.772;2022-11-23T17:08:11;4.27;;;1.87;;
13793;SDS011;31160;49.500;7.772;2022-11-23T17:10:45;4.73;;;1.50;;
13793;SDS011;31160;49.500;7.772;2022-11-23T17:13:16;6.00;;;1.73;;
13793;SDS011;31160;49.500;7.772;2022-11-23T17:15:49;5.60;;;2.40;;
13793;SDS011;31160;49.500;7.772;2022-11-23T17:18:16;12.93;;;7.00;;
13793;SDS011;31160;49.500;7.772;2022-11-23T17:20:43;10.87;;;6.13;;
13793;SDS011;31160;49.500;7.772;2022-11-23T17:23:10;7.57;;;3.17;;
13793;SDS011;31160;49.500;7.772;2022-11-23T17:25:37;6.80;;;2.83;;
13793;SDS011;31160;49.500;7.772;2022-11-23T17:28:09;9.27;;;3.70;;
13793;SDS011;31160;49.500;7.772;2022-11-23T17:30:39;9.80;;;4.77;;
13793;SDS011;31160;49.500;7.772;2022-11-23T17:33:10;10.33;;;3.70;;
13793;SDS011;31160;49.500;7.772;2022-11-23T17:35:37;6.13;;;2.87;;
13793;SDS011;31160;49.500;7.772;2022-11-23T17:38:05;7.20;;;3.60;;
13793;SDS011;31160;49.500;7.772;2022-11-23T17:40:37;8.00;;;3.00;;
13793;SDS011;31160;49.500;7.772;2022-11-23T17:43:04;5.73;;;2.20;;